Clear Lake, South Dakota
Current Conditions -  °F | °C
As of 7:13 PM on Monday 26 Jan 2015 (Local Time) from KCNB Reporting Station
Broken Clouds Broken Clouds  
Wind Chill: 31°   Ceiling: 2500
Heat Index: 37°   Visibility: 10mi
Dew Point: 33°   Wind: 8mph
Humidity: 83%   Direction: 310°NW
Pressure: 29.98"   Gusts: NA
Location:  44.75°N, 96.68°W
Report Text: KCNB 270113Z AUTO 31007KT 10SM BKN025 03/00 A2998 RMK AO2 T00290003
Loading
Personal Weather Stations






























Interactive Weather Map New forecast layout! Learn more

10-Day Weather Forecast

Advertisements
Track Severe Weather on mobile